This is the latest recevied weather packets stored in our database for station/object N2UGS-WX. If no packets are shown the sender has not sent any weather packets the latest 10 day(s).
| Time | Temp. | Humidity | Pressure | Rain* | Wind** | Luminosity | Snow |
|---|---|---|---|---|---|---|---|
| 1777571642 | 10° C | 62% | 1011.9 hPa | 0 mm | - | - | - |
| 1777570802 | 10.56° C | 61% | 1011.9 hPa | 0 mm | - | - | - |
| 1777570142 | 10.56° C | 62% | 1011.9 hPa | 0 mm | - | - | - |
| 1777569242 | 10.56° C | 65% | 1011.9 hPa | 0 mm | - | - | - |
| 1777568403 | 10° C | 64% | 1011.9 hPa | 0 mm | - | - | - |
| 1777567801 | 10° C | 65% | 1012.2 hPa | 0 mm | - | - | - |
| 1777566842 | 10° C | 65% | 1012.2 hPa | 0 mm | - | - | - |
| 1777566002 | 9.44° C | 68% | 1012.2 hPa | 0 mm | - | - | - |
| 1777565102 | 8.89° C | 72% | 1011.9 hPa | 0 mm | - | - | - |
| 1777564142 | 9.44° C | 69% | 1011.9 hPa | 0 mm | - | - | - |
| 1777563302 | 9.44° C | 71% | 1011.9 hPa | 0 mm | - | - | - |
| 1777562102 | 8.89° C | 71% | 1011.9 hPa | 0 mm | - | - | - |
| 1777561203 | 8.33° C | 72% | 1011.5 hPa | 0 mm | - | - | - |
| 1777560542 | 8.89° C | 72% | 1011.5 hPa | 0 mm | - | - | - |
| 1777559642 | 8.89° C | 76% | 1011.5 hPa | 0 mm | - | - | - |
| 1777558742 | 7.22° C | 79% | 1011.5 hPa | 0 mm | - | - | - |
| 1777557842 | 7.78° C | 77% | 1011.2 hPa | 0 mm | - | - | - |
| 1777556642 | 7.78° C | 80% | 1011.2 hPa | 0 mm | - | - | - |
| 1777555742 | 7.22° C | 84% | 1011.2 hPa | 0 mm | - | - | - |
| 1777554843 | 6.67° C | 85% | 1011.2 hPa | 0 mm | - | - | - |
| 1777553942 | 6.11° C | 87% | 1011.2 hPa | 0 mm | - | - | - |
| 1777553042 | 5.56° C | 90% | 1011.2 hPa | 0 mm | - | - | - |
| 1777552142 | 5.56° C | 92% | 1011.2 hPa | 0 mm | - | - | - |
| 1777551303 | 5° C | 94% | 1010.8 hPa | 0 mm | - | - | - |
| 1777550702 | 5° C | 95% | 1010.8 hPa | 0 mm | - | - | - |
* Rain latest hour (hover to see other rain measurements)
** Current wind speed in m/s (hover to see current wind gust speed)